sensor_id;sensor_type;location;lat;lon;timestamp;P1;durP1;ratioP1;P2;durP2;ratioP2
18623;SDS011;9441;51.420;7.036;2023-02-13T00:00:59;37.77;;;18.97;;
18623;SDS011;9441;51.420;7.036;2023-02-13T00:02:01;39.13;;;18.40;;
18623;SDS011;9441;51.420;7.036;2023-02-13T00:03:03;34.77;;;17.00;;
18623;SDS011;9441;51.420;7.036;2023-02-13T00:04:05;39.23;;;17.40;;
18623;SDS011;9441;51.420;7.036;2023-02-13T00:05:07;40.77;;;18.53;;
18623;SDS011;9441;51.420;7.036;2023-02-13T00:06:09;40.40;;;19.33;;
18623;SDS011;9441;51.420;7.036;2023-02-13T00:07:10;39.60;;;18.37;;
18623;SDS011;9441;51.420;7.036;2023-02-13T00:08:13;38.03;;;18.60;;
18623;SDS011;9441;51.420;7.036;2023-02-13T00:09:14;38.00;;;19.83;;
18623;SDS011;9441;51.420;7.036;2023-02-13T00:10:16;39.67;;;19.20;;
18623;SDS011;9441;51.420;7.036;2023-02-13T00:11:18;34.13;;;16.20;;
18623;SDS011;9441;51.420;7.036;2023-02-13T00:12:20;32.23;;;15.73;;
18623;SDS011;9441;51.420;7.036;2023-02-13T00:13:21;38.17;;;18.73;;
18623;SDS011;9441;51.420;7.036;2023-02-13T00:14:24;33.67;;;16.50;;
18623;SDS011;9441;51.420;7.036;2023-02-13T00:15:26;39.20;;;17.23;;
18623;SDS011;9441;51.420;7.036;2023-02-13T00:16:29;38.07;;;17.33;;
18623;SDS011;9441;51.420;7.036;2023-02-13T00:17:30;33.27;;;17.80;;
18623;SDS011;9441;51.420;7.036;2023-02-13T00:18:33;38.43;;;18.20;;
18623;SDS011;9441;51.420;7.036;2023-02-13T00:19:35;36.77;;;18.87;;
18623;SDS011;9441;51.420;7.036;2023-02-13T00:20:37;37.70;;;17.60;;
18623;SDS011;9441;51.420;7.036;2023-02-13T00:21:39;36.53;;;18.47;;
18623;SDS011;9441;51.420;7.036;2023-02-13T00:22:41;33.90;;;17.53;;
18623;SDS011;9441;51.420;7.036;2023-02-13T00:23:43;31.43;;;15.80;;
18623;SDS011;9441;51.420;7.036;2023-02-13T00:24:45;40.87;;;17.23;;
18623;SDS011;9441;51.420;7.036;2023-02-13T00:25:46;37.17;;;16.47;;
18623;SDS011;9441;51.420;7.036;2023-02-13T00:26:49;32.67;;;16.67;;
18623;SDS011;9441;51.420;7.036;2023-02-13T00:27:50;32.90;;;16.07;;
18623;SDS011;9441;51.420;7.036;2023-02-13T00:28:55;38.67;;;18.13;;
18623;SDS011;9441;51.420;7.036;2023-02-13T00:29:58;33.37;;;15.63;;
18623;SDS011;9441;51.420;7.036;2023-02-13T00:31:06;32.03;;;16.30;;
18623;SDS011;9441;51.420;7.036;2023-02-13T00:32:07;34.33;;;17.17;;
18623;SDS011;9441;51.420;7.036;2023-02-13T00:33:10;36.50;;;16.07;;
18623;SDS011;9441;51.420;7.036;2023-02-13T00:34:11;35.80;;;16.43;;
18623;SDS011;9441;51.420;7.036;2023-02-13T00:35:13;33.17;;;16.40;;
18623;SDS011;9441;51.420;7.036;2023-02-13T00:36:15;31.43;;;15.03;;
18623;SDS011;9441;51.420;7.036;2023-02-13T00:37:18;29.03;;;15.07;;
18623;SDS011;9441;51.420;7.036;2023-02-13T00:38:19;27.53;;;14.20;;
18623;SDS011;9441;51.420;7.036;2023-02-13T00:39:22;24.80;;;12.57;;
18623;SDS011;9441;51.420;7.036;2023-02-13T00:40:23;22.63;;;11.80;;
18623;SDS011;9441;51.420;7.036;2023-02-13T00:41:25;22.47;;;10.33;;
18623;SDS011;9441;51.420;7.036;2023-02-13T00:42:27;18.80;;;9.33;;
18623;SDS011;9441;51.420;7.036;2023-02-13T00:43:29;18.70;;;10.47;;
18623;SDS011;9441;51.420;7.036;2023-02-13T00:44:31;18.10;;;9.83;;
18623;SDS011;9441;51.420;7.036;2023-02-13T00:45:35;17.93;;;9.73;;
18623;SDS011;9441;51.420;7.036;2023-02-13T00:46:37;17.77;;;9.47;;
18623;SDS011;9441;51.420;7.036;2023-02-13T00:47:40;16.43;;;9.37;;
18623;SDS011;9441;51.420;7.036;2023-02-13T00:48:41;13.70;;;7.93;;
18623;SDS011;9441;51.420;7.036;2023-02-13T00:49:44;16.20;;;8.77;;
18623;SDS011;9441;51.420;7.036;2023-02-13T00:50:45;16.33;;;8.30;;
18623;SDS011;9441;51.420;7.036;2023-02-13T00:51:47;16.27;;;7.83;;
18623;SDS011;9441;51.420;7.036;2023-02-13T00:52:49;16.27;;;9.10;;
18623;SDS011;9441;51.420;7.036;2023-02-13T00:53:53;14.83;;;8.27;;
18623;SDS011;9441;51.420;7.036;2023-02-13T00:54:54;15.90;;;8.17;;
18623;SDS011;9441;51.420;7.036;2023-02-13T00:55:57;15.13;;;8.07;;
18623;SDS011;9441;51.420;7.036;2023-02-13T00:56:58;14.20;;;8.17;;
18623;SDS011;9441;51.420;7.036;2023-02-13T00:58:00;16.83;;;7.80;;
18623;SDS011;9441;51.420;7.036;2023-02-13T00:59:02;17.20;;;8.17;;
18623;SDS011;9441;51.420;7.036;2023-02-13T01:00:04;15.47;;;7.90;;
18623;SDS011;9441;51.420;7.036;2023-02-13T01:01:06;15.60;;;7.97;;
18623;SDS011;9441;51.420;7.036;2023-02-13T01:02:10;16.13;;;8.37;;
18623;SDS011;9441;51.420;7.036;2023-02-13T01:03:13;14.50;;;7.70;;
18623;SDS011;9441;51.420;7.036;2023-02-13T01:04:15;16.33;;;7.97;;
18623;SDS011;9441;51.420;7.036;2023-02-13T01:05:16;15.53;;;7.67;;
18623;SDS011;9441;51.420;7.036;2023-02-13T01:06:20;14.40;;;7.97;;
18623;SDS011;9441;51.420;7.036;2023-02-13T01:07:21;14.53;;;7.60;;
18623;SDS011;9441;51.420;7.036;2023-02-13T01:08:24;14.37;;;8.10;;
18623;SDS011;9441;51.420;7.036;2023-02-13T01:09:27;13.23;;;7.20;;
18623;SDS011;9441;51.420;7.036;2023-02-13T01:10:29;15.67;;;7.97;;
18623;SDS011;9441;51.420;7.036;2023-02-13T01:11:31;13.77;;;7.40;;
18623;SDS011;9441;51.420;7.036;2023-02-13T01:12:34;16.10;;;8.30;;
18623;SDS011;9441;51.420;7.036;2023-02-13T01:13:35;14.90;;;7.90;;
18623;SDS011;9441;51.420;7.036;2023-02-13T01:14:38;15.13;;;7.10;;
18623;SDS011;9441;51.420;7.036;2023-02-13T01:15:39;12.87;;;7.23;;
18623;SDS011;9441;51.420;7.036;2023-02-13T01:16:42;13.57;;;7.40;;
18623;SDS011;9441;51.420;7.036;2023-02-13T01:17:44;14.87;;;7.33;;
18623;SDS011;9441;51.420;7.036;2023-02-13T01:18:47;16.00;;;7.73;;
18623;SDS011;9441;51.420;7.036;2023-02-13T01:19:48;12.57;;;7.13;;
18623;SDS011;9441;51.420;7.036;2023-02-13T01:20:57;14.23;;;7.93;;
18623;SDS011;9441;51.420;7.036;2023-02-13T01:21:58;18.23;;;7.87;;
18623;SDS011;9441;51.420;7.036;2023-02-13T01:23:01;15.03;;;7.33;;
18623;SDS011;9441;51.420;7.036;2023-02-13T01:24:03;11.90;;;6.87;;
18623;SDS011;9441;51.420;7.036;2023-02-13T01:25:06;15.17;;;6.73;;
18623;SDS011;9441;51.420;7.036;2023-02-13T01:26:08;12.43;;;6.50;;
18623;SDS011;9441;51.420;7.036;2023-02-13T01:27:12;13.60;;;7.20;;
18623;SDS011;9441;51.420;7.036;2023-02-13T01:28:13;14.73;;;7.13;;
18623;SDS011;9441;51.420;7.036;2023-02-13T01:29:16;15.50;;;8.00;;
18623;SDS011;9441;51.420;7.036;2023-02-13T01:30:18;16.23;;;7.77;;
18623;SDS011;9441;51.420;7.036;2023-02-13T01:31:20;15.43;;;7.47;;
18623;SDS011;9441;51.420;7.036;2023-02-13T01:32:24;13.43;;;7.30;;
18623;SDS011;9441;51.420;7.036;2023-02-13T01:33:27;13.43;;;7.37;;
18623;SDS011;9441;51.420;7.036;2023-02-13T01:34:30;16.83;;;7.27;;
18623;SDS011;9441;51.420;7.036;2023-02-13T01:35:31;14.53;;;7.27;;
18623;SDS011;9441;51.420;7.036;2023-02-13T01:36:33;14.73;;;7.73;;
18623;SDS011;9441;51.420;7.036;2023-02-13T01:37:35;13.27;;;7.07;;
18623;SDS011;9441;51.420;7.036;2023-02-13T01:38:38;14.33;;;7.37;;
18623;SDS011;9441;51.420;7.036;2023-02-13T01:39:39;14.43;;;7.73;;
18623;SDS011;9441;51.420;7.036;2023-02-13T01:40:45;12.80;;;7.47;;
18623;SDS011;9441;51.420;7.036;2023-02-13T01:41:46;14.97;;;7.40;;
18623;SDS011;9441;51.420;7.036;2023-02-13T01:42:49;14.83;;;7.43;;
18623;SDS011;9441;51.420;7.036;2023-02-13T01:43:51;14.57;;;7.30;;
18623;SDS011;9441;51.420;7.036;2023-02-13T01:44:54;17.17;;;7.90;;
18623;SDS011;9441;51.420;7.036;2023-02-13T01:45:56;15.90;;;7.40;;
18623;SDS011;9441;51.420;7.036;2023-02-13T01:46:58;14.67;;;7.17;;
18623;SDS011;9441;51.420;7.036;2023-02-13T01:48:01;13.17;;;7.40;;
18623;SDS011;9441;51.420;7.036;2023-02-13T01:49:08;16.30;;;7.43;;
18623;SDS011;9441;51.420;7.036;2023-02-13T01:50:11;17.93;;;7.93;;
18623;SDS011;9441;51.420;7.036;2023-02-13T01:51:17;16.50;;;6.87;;
18623;SDS011;9441;51.420;7.036;2023-02-13T01:52:20;16.70;;;7.67;;
18623;SDS011;9441;51.420;7.036;2023-02-13T01:53:23;13.97;;;7.20;;
18623;SDS011;9441;51.420;7.036;2023-02-13T01:54:27;14.23;;;7.67;;
18623;SDS011;9441;51.420;7.036;2023-02-13T01:55:33;15.33;;;7.37;;
18623;SDS011;9441;51.420;7.036;2023-02-13T01:56:38;15.90;;;7.73;;
18623;SDS011;9441;51.420;7.036;2023-02-13T01:57:42;15.80;;;7.50;;
18623;SDS011;9441;51.420;7.036;2023-02-13T01:58:45;14.77;;;7.43;;
18623;SDS011;9441;51.420;7.036;2023-02-13T01:59:49;17.53;;;7.87;;
18623;SDS011;9441;51.420;7.036;2023-02-13T02:00:51;16.33;;;7.80;;
18623;SDS011;9441;51.420;7.036;2023-02-13T02:01:54;14.57;;;7.70;;
18623;SDS011;9441;51.420;7.036;2023-02-13T02:02:57;12.70;;;6.87;;
18623;SDS011;9441;51.420;7.036;2023-02-13T02:04:05;14.93;;;7.33;;
18623;SDS011;9441;51.420;7.036;2023-02-13T02:05:08;15.53;;;7.37;;
18623;SDS011;9441;51.420;7.036;2023-02-13T02:06:12;14.93;;;7.30;;
18623;SDS011;9441;51.420;7.036;2023-02-13T02:07:16;13.00;;;7.00;;
18623;SDS011;9441;51.420;7.036;2023-02-13T02:08:21;13.13;;;7.33;;
18623;SDS011;9441;51.420;7.036;2023-02-13T02:09:27;14.23;;;7.37;;
18623;SDS011;9441;51.420;7.036;2023-02-13T02:10:30;14.97;;;7.43;;
18623;SDS011;9441;51.420;7.036;2023-02-13T02:11:34;13.53;;;7.03;;
18623;SDS011;9441;51.420;7.036;2023-02-13T02:12:40;14.87;;;7.40;;
18623;SDS011;9441;51.420;7.036;2023-02-13T02:13:43;13.87;;;7.47;;
18623;SDS011;9441;51.420;7.036;2023-02-13T02:14:46;14.40;;;7.07;;
18623;SDS011;9441;51.420;7.036;2023-02-13T02:15:52;14.07;;;6.83;;
18623;SDS011;9441;51.420;7.036;2023-02-13T02:16:54;13.40;;;7.27;;
18623;SDS011;9441;51.420;7.036;2023-02-13T02:17:56;14.67;;;7.47;;
18623;SDS011;9441;51.420;7.036;2023-02-13T02:19:00;14.07;;;6.47;;
18623;SDS011;9441;51.420;7.036;2023-02-13T02:20:06;14.37;;;6.87;;
18623;SDS011;9441;51.420;7.036;2023-02-13T02:21:19;13.73;;;7.27;;
18623;SDS011;9441;51.420;7.036;2023-02-13T02:23:53;11.63;;;6.33;;
18623;SDS011;9441;51.420;7.036;2023-02-13T02:25:05;15.03;;;7.20;;
18623;SDS011;9441;51.420;7.036;2023-02-13T02:27:55;13.57;;;6.37;;
18623;SDS011;9441;51.420;7.036;2023-02-13T02:30:32;12.57;;;6.67;;
18623;SDS011;9441;51.420;7.036;2023-02-13T02:31:48;13.80;;;7.13;;
18623;SDS011;9441;51.420;7.036;2023-02-13T02:32:56;13.00;;;6.47;;
18623;SDS011;9441;51.420;7.036;2023-02-13T02:34:09;13.97;;;7.27;;
18623;SDS011;9441;51.420;7.036;2023-02-13T02:35:16;13.83;;;7.70;;
18623;SDS011;9441;51.420;7.036;2023-02-13T02:36:22;14.53;;;7.10;;
18623;SDS011;9441;51.420;7.036;2023-02-13T02:37:38;13.53;;;7.00;;
18623;SDS011;9441;51.420;7.036;2023-02-13T02:38:49;12.57;;;7.17;;
18623;SDS011;9441;51.420;7.036;2023-02-13T02:39:55;14.47;;;7.33;;
18623;SDS011;9441;51.420;7.036;2023-02-13T02:41:01;15.67;;;7.73;;
18623;SDS011;9441;51.420;7.036;2023-02-13T02:42:09;13.63;;;7.57;;
18623;SDS011;9441;51.420;7.036;2023-02-13T02:43:21;16.23;;;7.67;;
18623;SDS011;9441;51.420;7.036;2023-02-13T02:44:31;13.43;;;6.83;;
18623;SDS011;9441;51.420;7.036;2023-02-13T02:45:37;13.33;;;7.10;;
18623;SDS011;9441;51.420;7.036;2023-02-13T02:46:49;14.73;;;7.30;;
18623;SDS011;9441;51.420;7.036;2023-02-13T02:48:08;15.80;;;7.83;;
18623;SDS011;9441;51.420;7.036;2023-02-13T02:49:31;13.57;;;7.20;;
18623;SDS011;9441;51.420;7.036;2023-02-13T02:50:56;15.47;;;6.83;;
18623;SDS011;9441;51.420;7.036;2023-02-13T02:52:04;12.57;;;6.93;;
18623;SDS011;9441;51.420;7.036;2023-02-13T02:53:12;13.77;;;7.00;;
18623;SDS011;9441;51.420;7.036;2023-02-13T02:54:19;14.47;;;7.13;;
18623;SDS011;9441;51.420;7.036;2023-02-13T02:55:45;13.83;;;7.10;;
18623;SDS011;9441;51.420;7.036;2023-02-13T02:56:50;12.17;;;6.77;;
18623;SDS011;9441;51.420;7.036;2023-02-13T02:57:54;12.17;;;6.43;;
18623;SDS011;9441;51.420;7.036;2023-02-13T02:59:28;11.97;;;6.20;;
18623;SDS011;9441;51.420;7.036;2023-02-13T03:00:49;10.67;;;6.13;;
18623;SDS011;9441;51.420;7.036;2023-02-13T03:02:11;11.97;;;6.33;;
18623;SDS011;9441;51.420;7.036;2023-02-13T03:03:32;12.20;;;6.53;;
18623;SDS011;9441;51.420;7.036;2023-02-13T03:04:53;12.47;;;6.30;;
18623;SDS011;9441;51.420;7.036;2023-02-13T03:06:14;11.13;;;5.77;;
18623;SDS011;9441;51.420;7.036;2023-02-13T03:07:18;11.70;;;6.20;;
18623;SDS011;9441;51.420;7.036;2023-02-13T03:08:19;12.87;;;6.40;;
18623;SDS011;9441;51.420;7.036;2023-02-13T03:09:42;10.50;;;6.20;;
18623;SDS011;9441;51.420;7.036;2023-02-13T03:11:04;10.83;;;5.90;;
18623;SDS011;9441;51.420;7.036;2023-02-13T03:12:26;8.87;;;5.50;;
18623;SDS011;9441;51.420;7.036;2023-02-13T03:13:48;11.97;;;6.00;;
18623;SDS011;9441;51.420;7.036;2023-02-13T03:14:51;11.20;;;6.47;;
18623;SDS011;9441;51.420;7.036;2023-02-13T03:15:53;11.33;;;6.13;;
18623;SDS011;9441;51.420;7.036;2023-02-13T03:17:17;10.13;;;5.83;;
18623;SDS011;9441;51.420;7.036;2023-02-13T03:18:38;10.57;;;6.10;;
18623;SDS011;9441;51.420;7.036;2023-02-13T03:20:02;8.33;;;5.10;;
18623;SDS011;9441;51.420;7.036;2023-02-13T03:21:29;11.87;;;5.73;;
18623;SDS011;9441;51.420;7.036;2023-02-13T03:23:01;9.63;;;5.10;;
18623;SDS011;9441;51.420;7.036;2023-02-13T03:24:06;9.77;;;5.03;;
18623;SDS011;9441;51.420;7.036;2023-02-13T03:25:11;9.00;;;4.83;;
18623;SDS011;9441;51.420;7.036;2023-02-13T03:26:25;8.23;;;5.10;;
18623;SDS011;9441;51.420;7.036;2023-02-13T03:27:46;9.03;;;4.90;;
18623;SDS011;9441;51.420;7.036;2023-02-13T03:29:10;8.03;;;4.50;;
18623;SDS011;9441;51.420;7.036;2023-02-13T03:30:34;6.70;;;4.63;;
18623;SDS011;9441;51.420;7.036;2023-02-13T03:31:41;9.10;;;5.10;;
18623;SDS011;9441;51.420;7.036;2023-02-13T03:32:47;8.37;;;5.20;;
18623;SDS011;9441;51.420;7.036;2023-02-13T03:33:53;10.03;;;5.50;;
18623;SDS011;9441;51.420;7.036;2023-02-13T03:34:59;9.77;;;5.40;;
18623;SDS011;9441;51.420;7.036;2023-02-13T03:36:26;7.87;;;4.83;;
18623;SDS011;9441;51.420;7.036;2023-02-13T03:37:49;7.47;;;4.33;;
18623;SDS011;9441;51.420;7.036;2023-02-13T03:38:56;7.97;;;4.67;;
18623;SDS011;9441;51.420;7.036;2023-02-13T03:40:00;9.80;;;5.40;;
18623;SDS011;9441;51.420;7.036;2023-02-13T03:41:04;9.10;;;4.97;;
18623;SDS011;9441;51.420;7.036;2023-02-13T03:42:19;9.30;;;4.87;;
18623;SDS011;9441;51.420;7.036;2023-02-13T03:43:23;9.40;;;5.23;;
18623;SDS011;9441;51.420;7.036;2023-02-13T03:44:26;8.80;;;4.93;;
18623;SDS011;9441;51.420;7.036;2023-02-13T03:45:31;10.47;;;5.23;;
18623;SDS011;9441;51.420;7.036;2023-02-13T03:46:52;9.80;;;5.13;;
18623;SDS011;9441;51.420;7.036;2023-02-13T03:47:57;7.67;;;4.73;;
18623;SDS011;9441;51.420;7.036;2023-02-13T03:49:10;8.47;;;4.57;;
18623;SDS011;9441;51.420;7.036;2023-02-13T03:50:30;8.20;;;5.00;;
18623;SDS011;9441;51.420;7.036;2023-02-13T03:51:33;9.07;;;4.70;;
18623;SDS011;9441;51.420;7.036;2023-02-13T03:52:38;10.37;;;5.27;;
18623;SDS011;9441;51.420;7.036;2023-02-13T03:53:41;9.60;;;5.23;;
18623;SDS011;9441;51.420;7.036;2023-02-13T03:54:45;8.80;;;5.10;;
18623;SDS011;9441;51.420;7.036;2023-02-13T03:56:06;11.50;;;4.77;;
18623;SDS011;9441;51.420;7.036;2023-02-13T03:57:27;9.20;;;5.20;;
18623;SDS011;9441;51.420;7.036;2023-02-13T03:58:49;9.47;;;5.13;;
18623;SDS011;9441;51.420;7.036;2023-02-13T04:00:14;10.93;;;5.23;;
18623;SDS011;9441;51.420;7.036;2023-02-13T04:01:18;8.67;;;5.00;;
18623;SDS011;9441;51.420;7.036;2023-02-13T04:02:20;10.87;;;5.00;;
18623;SDS011;9441;51.420;7.036;2023-02-13T04:03:27;8.50;;;5.00;;
18623;SDS011;9441;51.420;7.036;2023-02-13T04:04:33;6.60;;;4.43;;
18623;SDS011;9441;51.420;7.036;2023-02-13T04:05:38;8.97;;;4.73;;
18623;SDS011;9441;51.420;7.036;2023-02-13T04:06:41;8.30;;;4.73;;
18623;SDS011;9441;51.420;7.036;2023-02-13T04:07:48;9.93;;;5.57;;
18623;SDS011;9441;51.420;7.036;2023-02-13T04:08:49;10.27;;;4.87;;
18623;SDS011;9441;51.420;7.036;2023-02-13T04:09:51;12.13;;;5.13;;
18623;SDS011;9441;51.420;7.036;2023-02-13T04:10:53;12.17;;;5.23;;
18623;SDS011;9441;51.420;7.036;2023-02-13T04:11:58;8.30;;;4.87;;
18623;SDS011;9441;51.420;7.036;2023-02-13T04:13:02;8.03;;;4.37;;
18623;SDS011;9441;51.420;7.036;2023-02-13T04:14:06;8.63;;;4.80;;
18623;SDS011;9441;51.420;7.036;2023-02-13T04:15:10;9.60;;;5.00;;
18623;SDS011;9441;51.420;7.036;2023-02-13T04:16:15;9.97;;;5.10;;
18623;SDS011;9441;51.420;7.036;2023-02-13T04:17:19;9.83;;;5.37;;
18623;SDS011;9441;51.420;7.036;2023-02-13T04:18:23;10.37;;;5.60;;
18623;SDS011;9441;51.420;7.036;2023-02-13T04:19:27;8.90;;;4.80;;
18623;SDS011;9441;51.420;7.036;2023-02-13T04:20:30;9.30;;;4.80;;
18623;SDS011;9441;51.420;7.036;2023-02-13T04:21:31;8.87;;;4.70;;
18623;SDS011;9441;51.420;7.036;2023-02-13T04:22:40;8.77;;;4.83;;
18623;SDS011;9441;51.420;7.036;2023-02-13T04:23:41;9.47;;;5.00;;
18623;SDS011;9441;51.420;7.036;2023-02-13T04:24:44;10.67;;;5.13;;
18623;SDS011;9441;51.420;7.036;2023-02-13T04:25:47;11.17;;;5.23;;
18623;SDS011;9441;51.420;7.036;2023-02-13T04:26:51;10.27;;;5.40;;
18623;SDS011;9441;51.420;7.036;2023-02-13T04:27:53;11.80;;;5.70;;
18623;SDS011;9441;51.420;7.036;2023-02-13T04:28:56;11.20;;;5.63;;
18623;SDS011;9441;51.420;7.036;2023-02-13T04:29:57;11.77;;;5.43;;
18623;SDS011;9441;51.420;7.036;2023-02-13T04:30:59;12.60;;;5.40;;
18623;SDS011;9441;51.420;7.036;2023-02-13T04:32:00;9.90;;;5.20;;
18623;SDS011;9441;51.420;7.036;2023-02-13T04:33:03;10.43;;;5.40;;
18623;SDS011;9441;51.420;7.036;2023-02-13T04:34:04;11.00;;;5.80;;
18623;SDS011;9441;51.420;7.036;2023-02-13T04:35:08;9.60;;;4.97;;
18623;SDS011;9441;51.420;7.036;2023-02-13T04:36:12;12.53;;;6.23;;
18623;SDS011;9441;51.420;7.036;2023-02-13T04:37:14;12.40;;;5.97;;
18623;SDS011;9441;51.420;7.036;2023-02-13T04:38:15;11.37;;;5.60;;
18623;SDS011;9441;51.420;7.036;2023-02-13T04:39:18;10.93;;;5.60;;
18623;SDS011;9441;51.420;7.036;2023-02-13T04:40:19;9.30;;;5.63;;
18623;SDS011;9441;51.420;7.036;2023-02-13T04:41:21;11.63;;;5.90;;
18623;SDS011;9441;51.420;7.036;2023-02-13T04:42:23;11.83;;;5.63;;
18623;SDS011;9441;51.420;7.036;2023-02-13T04:43:25;9.67;;;5.63;;
18623;SDS011;9441;51.420;7.036;2023-02-13T04:44:27;10.73;;;6.20;;
18623;SDS011;9441;51.420;7.036;2023-02-13T04:45:29;11.20;;;6.10;;
18623;SDS011;9441;51.420;7.036;2023-02-13T04:46:30;11.57;;;6.10;;
18623;SDS011;9441;51.420;7.036;2023-02-13T04:47:33;12.57;;;6.27;;
18623;SDS011;9441;51.420;7.036;2023-02-13T04:48:34;11.00;;;5.87;;
18623;SDS011;9441;51.420;7.036;2023-02-13T04:49:36;10.03;;;5.20;;
18623;SDS011;9441;51.420;7.036;2023-02-13T04:50:39;12.20;;;6.17;;
18623;SDS011;9441;51.420;7.036;2023-02-13T04:51:41;12.43;;;6.43;;
18623;SDS011;9441;51.420;7.036;2023-02-13T04:52:43;10.40;;;5.30;;
18623;SDS011;9441;51.420;7.036;2023-02-13T04:53:45;12.37;;;6.30;;
18623;SDS011;9441;51.420;7.036;2023-02-13T04:54:46;12.80;;;5.83;;
18623;SDS011;9441;51.420;7.036;2023-02-13T04:55:49;11.27;;;5.90;;
18623;SDS011;9441;51.420;7.036;2023-02-13T04:56:50;12.23;;;6.03;;
18623;SDS011;9441;51.420;7.036;2023-02-13T04:57:53;11.13;;;5.70;;
18623;SDS011;9441;51.420;7.036;2023-02-13T04:58:54;12.80;;;6.40;;
18623;SDS011;9441;51.420;7.036;2023-02-13T04:59:57;12.40;;;5.97;;
18623;SDS011;9441;51.420;7.036;2023-02-13T05:00:58;12.13;;;6.17;;
18623;SDS011;9441;51.420;7.036;2023-02-13T05:02:00;12.83;;;6.60;;
18623;SDS011;9441;51.420;7.036;2023-02-13T05:03:03;13.40;;;6.53;;
18623;SDS011;9441;51.420;7.036;2023-02-13T05:04:06;14.23;;;6.60;;
18623;SDS011;9441;51.420;7.036;2023-02-13T05:05:07;12.47;;;6.13;;
18623;SDS011;9441;51.420;7.036;2023-02-13T05:06:11;13.80;;;6.47;;
18623;SDS011;9441;51.420;7.036;2023-02-13T05:07:12;10.90;;;5.67;;
18623;SDS011;9441;51.420;7.036;2023-02-13T05:08:14;12.97;;;5.87;;
18623;SDS011;9441;51.420;7.036;2023-02-13T05:09:16;12.70;;;6.20;;
18623;SDS011;9441;51.420;7.036;2023-02-13T05:10:18;12.53;;;6.20;;
18623;SDS011;9441;51.420;7.036;2023-02-13T05:11:19;12.90;;;6.60;;
18623;SDS011;9441;51.420;7.036;2023-02-13T05:12:22;12.10;;;5.93;;
18623;SDS011;9441;51.420;7.036;2023-02-13T05:13:23;12.87;;;6.37;;
18623;SDS011;9441;51.420;7.036;2023-02-13T05:14:26;14.33;;;6.43;;
18623;SDS011;9441;51.420;7.036;2023-02-13T05:15:27;12.33;;;6.10;;
18623;SDS011;9441;51.420;7.036;2023-02-13T05:16:30;13.03;;;7.13;;
18623;SDS011;9441;51.420;7.036;2023-02-13T05:17:31;16.70;;;7.10;;
18623;SDS011;9441;51.420;7.036;2023-02-13T05:18:34;15.40;;;7.20;;
18623;SDS011;9441;51.420;7.036;2023-02-13T05:19:35;11.87;;;6.80;;
18623;SDS011;9441;51.420;7.036;2023-02-13T05:20:37;14.30;;;6.60;;
18623;SDS011;9441;51.420;7.036;2023-02-13T05:21:40;11.57;;;5.97;;
18623;SDS011;9441;51.420;7.036;2023-02-13T05:22:59;12.80;;;6.63;;
18623;SDS011;9441;51.420;7.036;2023-02-13T05:24:19;14.63;;;6.70;;
18623;SDS011;9441;51.420;7.036;2023-02-13T05:25:22;13.37;;;6.57;;
18623;SDS011;9441;51.420;7.036;2023-02-13T05:26:23;12.80;;;6.30;;
18623;SDS011;9441;51.420;7.036;2023-02-13T05:27:25;13.53;;;6.60;;
18623;SDS011;9441;51.420;7.036;2023-02-13T05:28:27;13.63;;;7.13;;
18623;SDS011;9441;51.420;7.036;2023-02-13T05:29:46;13.57;;;6.50;;
18623;SDS011;9441;51.420;7.036;2023-02-13T05:30:49;11.67;;;6.43;;
18623;SDS011;9441;51.420;7.036;2023-02-13T05:31:51;11.17;;;6.27;;
18623;SDS011;9441;51.420;7.036;2023-02-13T05:32:53;15.03;;;6.90;;
18623;SDS011;9441;51.420;7.036;2023-02-13T05:33:55;12.90;;;6.70;;
18623;SDS011;9441;51.420;7.036;2023-02-13T05:34:57;12.90;;;6.40;;
18623;SDS011;9441;51.420;7.036;2023-02-13T05:35:58;15.33;;;6.87;;
18623;SDS011;9441;51.420;7.036;2023-02-13T05:37:02;11.20;;;6.20;;
18623;SDS011;9441;51.420;7.036;2023-02-13T05:38:03;12.83;;;6.30;;
18623;SDS011;9441;51.420;7.036;2023-02-13T05:39:06;12.67;;;6.40;;
18623;SDS011;9441;51.420;7.036;2023-02-13T05:40:07;13.77;;;7.43;;
18623;SDS011;9441;51.420;7.036;2023-02-13T05:41:10;16.27;;;6.43;;
18623;SDS011;9441;51.420;7.036;2023-02-13T05:42:12;16.80;;;7.40;;
18623;SDS011;9441;51.420;7.036;2023-02-13T05:43:15;12.67;;;6.53;;
18623;SDS011;9441;51.420;7.036;2023-02-13T05:44:16;12.50;;;6.60;;
18623;SDS011;9441;51.420;7.036;2023-02-13T05:45:18;12.43;;;6.67;;
18623;SDS011;9441;51.420;7.036;2023-02-13T05:46:20;14.33;;;6.93;;
18623;SDS011;9441;51.420;7.036;2023-02-13T05:47:22;12.97;;;7.10;;
18623;SDS011;9441;51.420;7.036;2023-02-13T05:48:24;12.80;;;6.90;;
18623;SDS011;9441;51.420;7.036;2023-02-13T05:49:26;15.30;;;6.97;;
18623;SDS011;9441;51.420;7.036;2023-02-13T05:50:27;11.93;;;5.93;;
18623;SDS011;9441;51.420;7.036;2023-02-13T05:51:30;11.80;;;6.20;;
18623;SDS011;9441;51.420;7.036;2023-02-13T05:52:32;12.73;;;6.73;;
18623;SDS011;9441;51.420;7.036;2023-02-13T05:53:35;12.83;;;6.53;;
18623;SDS011;9441;51.420;7.036;2023-02-13T05:54:36;14.87;;;6.90;;
18623;SDS011;9441;51.420;7.036;2023-02-13T05:55:39;15.17;;;6.90;;
18623;SDS011;9441;51.420;7.036;2023-02-13T05:56:40;16.93;;;7.80;;
18623;SDS011;9441;51.420;7.036;2023-02-13T05:57:43;13.80;;;6.70;;
18623;SDS011;9441;51.420;7.036;2023-02-13T05:58:44;13.30;;;6.87;;
18623;SDS011;9441;51.420;7.036;2023-02-13T05:59:46;14.60;;;6.23;;
18623;SDS011;9441;51.420;7.036;2023-02-13T06:00:48;12.67;;;6.07;;
18623;SDS011;9441;51.420;7.036;2023-02-13T06:01:50;15.87;;;6.47;;
18623;SDS011;9441;51.420;7.036;2023-02-13T06:02:51;16.33;;;7.70;;
18623;SDS011;9441;51.420;7.036;2023-02-13T06:03:54;14.00;;;6.70;;
18623;SDS011;9441;51.420;7.036;2023-02-13T06:04:55;13.03;;;6.50;;
18623;SDS011;9441;51.420;7.036;2023-02-13T06:05:58;13.07;;;6.30;;
18623;SDS011;9441;51.420;7.036;2023-02-13T06:06:59;12.83;;;6.70;;
18623;SDS011;9441;51.420;7.036;2023-02-13T06:08:03;15.57;;;6.90;;
18623;SDS011;9441;51.420;7.036;2023-02-13T06:09:04;11.73;;;6.30;;
18623;SDS011;9441;51.420;7.036;2023-02-13T06:10:07;12.80;;;6.13;;
18623;SDS011;9441;51.420;7.036;2023-02-13T06:11:09;11.13;;;5.87;;
18623;SDS011;9441;51.420;7.036;2023-02-13T06:12:11;13.73;;;6.37;;
18623;SDS011;9441;51.420;7.036;2023-02-13T06:13:13;13.87;;;6.27;;
18623;SDS011;9441;51.420;7.036;2023-02-13T06:14:15;11.70;;;6.13;;
18623;SDS011;9441;51.420;7.036;2023-02-13T06:15:16;12.87;;;5.80;;
18623;SDS011;9441;51.420;7.036;2023-02-13T06:16:19;12.93;;;5.93;;
18623;SDS011;9441;51.420;7.036;2023-02-13T06:17:21;13.67;;;5.23;;
18623;SDS011;9441;51.420;7.036;2023-02-13T06:18:24;12.67;;;5.43;;
18623;SDS011;9441;51.420;7.036;2023-02-13T06:19:25;14.20;;;5.50;;
18623;SDS011;9441;51.420;7.036;2023-02-13T06:20:27;13.83;;;6.60;;
18623;SDS011;9441;51.420;7.036;2023-02-13T06:21:28;17.67;;;6.30;;
18623;SDS011;9441;51.420;7.036;2023-02-13T06:22:32;13.07;;;5.73;;
18623;SDS011;9441;51.420;7.036;2023-02-13T06:23:35;13.90;;;5.90;;
18623;SDS011;9441;51.420;7.036;2023-02-13T06:24:37;11.67;;;5.33;;
18623;SDS011;9441;51.420;7.036;2023-02-13T06:25:38;13.67;;;5.60;;
18623;SDS011;9441;51.420;7.036;2023-02-13T06:26:41;14.10;;;5.87;;
18623;SDS011;9441;51.420;7.036;2023-02-13T06:27:42;12.67;;;5.37;;
18623;SDS011;9441;51.420;7.036;2023-02-13T06:28:45;11.97;;;5.77;;
18623;SDS011;9441;51.420;7.036;2023-02-13T06:29:46;13.87;;;6.30;;
18623;SDS011;9441;51.420;7.036;2023-02-13T06:30:48;13.53;;;6.13;;
18623;SDS011;9441;51.420;7.036;2023-02-13T06:31:50;11.53;;;5.77;;
18623;SDS011;9441;51.420;7.036;2023-02-13T06:32:52;13.30;;;6.10;;
18623;SDS011;9441;51.420;7.036;2023-02-13T06:33:53;14.40;;;6.83;;
18623;SDS011;9441;51.420;7.036;2023-02-13T06:34:56;17.47;;;6.57;;
18623;SDS011;9441;51.420;7.036;2023-02-13T06:35:57;14.70;;;6.83;;
18623;SDS011;9441;51.420;7.036;2023-02-13T06:36:59;14.67;;;6.13;;